createdAt,value
2022-08-04T00:02:21.667Z,99.10
2022-08-04T00:05:44.085Z,99.20
2022-08-04T00:08:55.640Z,99.20
2022-08-04T00:12:01.401Z,99.20
2022-08-04T00:15:06.376Z,99.20
2022-08-04T00:18:09.941Z,99.00
2022-08-04T00:21:19.254Z,99.20
2022-08-04T00:24:22.467Z,99.40
2022-08-04T00:27:24.841Z,99.20
2022-08-04T00:30:28.186Z,99.50
2022-08-04T00:33:30.795Z,99.50
2022-08-04T00:36:34.526Z,99.30
2022-08-04T00:39:37.869Z,99.20
2022-08-04T00:42:59.620Z,99.30
2022-08-04T00:46:35.714Z,99.40
2022-08-04T00:50:05.680Z,99.10
2022-08-04T00:53:09.601Z,99.40
2022-08-04T00:56:36.211Z,99.50
2022-08-04T00:59:47.214Z,99.10
2022-08-04T01:03:10.892Z,99.40
2022-08-04T01:06:25.201Z,99.50
2022-08-04T01:09:40.120Z,99.50
2022-08-04T01:12:56.511Z,99.50
2022-08-04T01:16:07.835Z,99.60
2022-08-04T01:19:22.706Z,99.70
2022-08-04T01:22:33.937Z,99.60
2022-08-04T01:26:42.819Z,99.70
2022-08-04T01:29:55.839Z,99.90
2022-08-04T01:33:08.591Z,99.90
2022-08-04T01:36:13.135Z,99.90
2022-08-04T01:39:34.422Z,99.90
2022-08-04T01:42:37.569Z,99.90
2022-08-04T01:45:41.755Z,99.90
2022-08-04T01:48:47.690Z,99.90
2022-08-04T01:51:53.778Z,99.90
2022-08-04T01:54:56.805Z,99.90
2022-08-04T01:58:01.157Z,99.90
2022-08-04T02:01:08.739Z,99.90
2022-08-04T02:04:23.109Z,99.90
2022-08-04T02:07:25.776Z,99.90
2022-08-04T02:10:38.416Z,99.90
2022-08-04T02:14:03.420Z,99.90
2022-08-04T02:17:12.044Z,99.90
2022-08-04T02:20:29.104Z,99.90
2022-08-04T02:23:39.295Z,99.90
2022-08-04T02:26:44.345Z,99.90
2022-08-04T02:30:00.381Z,99.90
2022-08-04T02:33:07.903Z,99.90
2022-08-04T02:36:16.842Z,99.90
2022-08-04T02:39:21.518Z,99.90
2022-08-04T02:42:24.952Z,99.90
2022-08-04T02:45:29.085Z,99.90
2022-08-04T02:48:34.928Z,99.90
2022-08-04T02:51:52.599Z,99.90
2022-08-04T02:55:00.087Z,99.90
2022-08-04T02:58:04.599Z,99.90
2022-08-04T03:01:07.263Z,99.90
2022-08-04T03:04:25.124Z,99.90
2022-08-04T03:08:00.021Z,99.90
2022-08-04T03:11:26.968Z,99.90
2022-08-04T03:14:51.087Z,99.90
2022-08-04T03:18:11.805Z,99.90
2022-08-04T03:21:22.851Z,99.90
2022-08-04T03:25:06.469Z,99.90
2022-08-04T03:28:49.745Z,99.90
2022-08-04T03:32:30.918Z,99.90
2022-08-04T03:36:00.647Z,99.90
2022-08-04T03:39:24.056Z,99.90
2022-08-04T03:42:44.320Z,99.90
2022-08-04T03:46:09.318Z,99.90
2022-08-04T03:49:55.904Z,99.90
2022-08-04T03:53:15.845Z,99.90
2022-08-04T03:56:54.748Z,99.90
2022-08-04T04:00:08.912Z,99.90
2022-08-04T04:03:51.905Z,99.90
2022-08-04T04:07:29.876Z,99.90
2022-08-04T04:10:57.747Z,99.90
2022-08-04T04:14:26.360Z,99.90
2022-08-04T04:17:40.447Z,99.90
2022-08-04T04:20:51.585Z,99.90
2022-08-04T04:24:32.715Z,99.90
2022-08-04T04:28:45.054Z,99.90
2022-08-04T04:31:49.083Z,99.90
2022-08-04T04:35:14.644Z,99.90
2022-08-04T04:38:29.028Z,99.90
2022-08-04T04:41:58.704Z,99.90
2022-08-04T04:45:30.013Z,99.90
2022-08-04T04:48:38.328Z,99.90
2022-08-04T04:52:09.449Z,99.90
2022-08-04T04:55:30.536Z,99.90
2022-08-04T04:58:36.219Z,99.90
2022-08-04T05:01:44.418Z,99.90
2022-08-04T05:04:59.001Z,99.90
2022-08-04T05:08:44.454Z,99.90
2022-08-04T05:11:46.306Z,99.90
2022-08-04T05:14:50.737Z,99.90
2022-08-04T05:17:57.129Z,99.90
2022-08-04T05:21:24.870Z,99.90
2022-08-04T05:24:29.775Z,99.90
2022-08-04T05:27:58.965Z,99.90
2022-08-04T05:31:05.619Z,99.90
2022-08-04T05:34:20.417Z,99.90
2022-08-04T05:37:24.026Z,99.90
2022-08-04T05:40:31.276Z,99.90
2022-08-04T05:43:34.859Z,99.90
2022-08-04T05:46:38.172Z,99.90
2022-08-04T05:49:41.883Z,99.90
2022-08-04T05:52:45.201Z,99.90
2022-08-04T05:55:58.471Z,99.90
2022-08-04T05:59:05.973Z,99.90
2022-08-04T06:02:10.725Z,99.90
2022-08-04T06:05:15.938Z,99.90
2022-08-04T06:08:18.318Z,99.90
2022-08-04T06:11:23.187Z,99.90
2022-08-04T06:14:26.540Z,99.90
2022-08-04T06:18:35.285Z,99.90
2022-08-04T06:21:04.762Z,99.90
2022-08-04T06:24:23.856Z,99.90
2022-08-04T06:27:29.035Z,99.90
2022-08-04T06:30:33.993Z,99.90
2022-08-04T06:33:54.501Z,99.90
2022-08-04T06:36:59.590Z,99.90
2022-08-04T06:40:29.332Z,99.90
2022-08-04T06:43:32.466Z,99.90
2022-08-04T06:46:45.407Z,99.90
2022-08-04T06:51:26.757Z,99.90
2022-08-04T06:53:12.604Z,99.90
2022-08-04T06:56:18.208Z,99.90
2022-08-04T06:59:22.523Z,99.90
2022-08-04T07:02:30.087Z,99.90
2022-08-04T07:05:34.088Z,99.90
2022-08-04T07:08:37.278Z,99.90
2022-08-04T07:11:44.330Z,99.90
2022-08-04T07:14:47.812Z,99.90
2022-08-04T07:17:52.844Z,99.90
2022-08-04T07:20:55.484Z,99.90
2022-08-04T07:23:57.680Z,99.90
2022-08-04T07:27:02.007Z,99.90
2022-08-04T07:30:06.600Z,99.90
2022-08-04T07:33:09.176Z,99.50
2022-08-04T07:36:12.490Z,99.60
2022-08-04T07:39:21.864Z,99.50
2022-08-04T07:42:32.314Z,99.30
2022-08-04T07:45:34.907Z,99.10
2022-08-04T07:48:37.105Z,99.10
2022-08-04T07:51:41.770Z,98.80
2022-08-04T07:54:45.973Z,99.10
2022-08-04T07:57:48.616Z,99.00
2022-08-04T08:00:54.538Z,98.90
2022-08-04T08:03:58.954Z,98.70
2022-08-04T08:07:01.333Z,98.90
2022-08-04T08:10:03.742Z,98.70
2022-08-04T08:13:07.755Z,98.60
2022-08-04T08:16:11.049Z,98.90
2022-08-04T08:19:14.515Z,98.80
2022-08-04T08:22:16.788Z,98.50
2022-08-04T08:25:19.509Z,98.60
2022-08-04T08:28:23.482Z,98.90
2022-08-04T08:31:55.342Z,98.60
2022-08-04T08:34:48.889Z,98.60
2022-08-04T08:37:58.708Z,98.60
2022-08-04T08:41:51.898Z,98.80
2022-08-04T08:45:21.283Z,98.50
2022-08-04T08:49:00.468Z,98.40
2022-08-04T08:52:15.225Z,98.30
2022-08-04T08:55:54.430Z,98.70
2022-08-04T08:59:33.889Z,98.80
2022-08-04T09:03:04.060Z,98.80
2022-08-04T09:06:45.289Z,98.40
2022-08-04T09:09:47.865Z,98.00
2022-08-04T09:13:13.630Z,98.10
2022-08-04T09:16:31.219Z,98.00
2022-08-04T09:19:50.171Z,98.00
2022-08-04T09:23:11.185Z,97.80
2022-08-04T09:26:21.855Z,97.10
2022-08-04T09:29:48.025Z,97.50
2022-08-04T09:33:02.311Z,97.30
2022-08-04T09:36:41.512Z,97.10
2022-08-04T09:40:29.221Z,97.10
2022-08-04T09:43:59.345Z,96.70
2022-08-04T09:47:39.426Z,96.40
2022-08-04T09:50:50.310Z,96.30
2022-08-04T09:54:09.645Z,96.00
2022-08-04T09:57:43.622Z,96.40
2022-08-04T10:00:52.850Z,97.00
2022-08-04T10:04:08.351Z,96.70
2022-08-04T10:07:31.219Z,96.50
2022-08-04T10:10:56.834Z,95.60
2022-08-04T10:14:07.731Z,95.90
2022-08-04T10:17:30.596Z,96.00
2022-08-04T10:21:15.028Z,96.00
2022-08-04T10:24:37.171Z,96.20
2022-08-04T10:27:56.253Z,96.10
2022-08-04T10:31:05.078Z,95.20
2022-08-04T10:34:28.584Z,95.60
2022-08-04T10:38:01.291Z,95.20
2022-08-04T10:41:17.479Z,94.60
2022-08-04T10:44:42.414Z,95.20
2022-08-04T10:48:06.126Z,94.90
2022-08-04T10:51:58.489Z,94.60
2022-08-04T10:55:04.256Z,94.50
2022-08-04T10:58:10.133Z,94.40
2022-08-04T11:02:01.740Z,94.90
2022-08-04T11:04:53.947Z,94.50
2022-08-04T11:08:13.625Z,94.40
2022-08-04T11:12:00.721Z,93.90
2022-08-04T11:15:13.772Z,93.50
2022-08-04T11:18:23.991Z,93.20
2022-08-04T11:21:32.466Z,93.50
2022-08-04T11:25:02.431Z,93.50
2022-08-04T11:28:26.834Z,93.00
2022-08-04T11:31:35.706Z,92.90
2022-08-04T11:34:42.714Z,93.10
2022-08-04T11:38:21.315Z,92.50
2022-08-04T11:41:38.354Z,92.60
2022-08-04T11:44:48.242Z,92.40
2022-08-04T11:48:06.342Z,91.90
2022-08-04T11:51:12.373Z,91.20
2022-08-04T11:54:16.188Z,92.00
2022-08-04T11:57:19.851Z,91.70
2022-08-04T12:00:25.454Z,90.90
2022-08-04T12:04:04.035Z,91.40
2022-08-04T12:07:49.363Z,91.40
2022-08-04T12:11:05.013Z,91.60
2022-08-04T12:14:28.140Z,91.50
2022-08-04T12:17:52.320Z,91.40
2022-08-04T12:21:01.295Z,91.50
2022-08-04T12:24:33.265Z,91.40
2022-08-04T12:27:59.650Z,91.40
2022-08-04T12:31:12.621Z,91.40
2022-08-04T12:34:24.050Z,91.40
2022-08-04T12:37:35.298Z,91.30
2022-08-04T12:40:45.233Z,91.60
2022-08-04T12:43:47.766Z,91.40
2022-08-04T12:46:50.567Z,91.50
2022-08-04T12:50:00.725Z,91.40
2022-08-04T12:53:12.759Z,91.50
2022-08-04T12:56:28.698Z,91.50
2022-08-04T12:59:37.780Z,91.00
2022-08-04T13:02:46.359Z,91.00
2022-08-04T13:05:53.087Z,90.70
2022-08-04T13:08:56.880Z,90.70
2022-08-04T13:12:06.403Z,90.50
2022-08-04T13:15:17.572Z,90.60
2022-08-04T13:18:24.983Z,90.10
2022-08-04T13:21:50.381Z,89.60
2022-08-04T13:26:40.820Z,87.60
2022-08-04T13:28:26.767Z,88.80
2022-08-04T13:31:35.934Z,87.50
2022-08-04T13:34:49.509Z,88.20
2022-08-04T13:37:57.501Z,87.60
2022-08-04T13:41:05.986Z,87.40
2022-08-04T13:44:19.607Z,87.30
2022-08-04T13:47:34.311Z,88.20
2022-08-04T13:50:38.453Z,88.50
2022-08-04T13:53:45.338Z,89.40
2022-08-04T13:56:53.529Z,90.00
2022-08-04T14:00:06.383Z,90.40
2022-08-04T14:03:19.082Z,90.70
2022-08-04T14:06:29.140Z,90.50
2022-08-04T14:09:35.944Z,90.80
2022-08-04T14:12:47.219Z,90.70
2022-08-04T14:16:01.022Z,90.60
2022-08-04T14:19:06.229Z,90.80
2022-08-04T14:22:27.825Z,90.80
2022-08-04T14:25:30.425Z,90.60
2022-08-04T14:29:25.057Z,90.60
2022-08-04T14:32:12.767Z,90.80
2022-08-04T14:35:16.745Z,90.80
2022-08-04T14:38:20.413Z,90.70
2022-08-04T14:41:32.804Z,90.80
2022-08-04T14:44:53.899Z,90.80
2022-08-04T14:47:56.166Z,90.80
2022-08-04T14:50:58.723Z,90.80
2022-08-04T14:54:05.013Z,90.70
2022-08-04T14:57:16.556Z,90.90
2022-08-04T15:00:31.245Z,90.70
2022-08-04T15:03:33.683Z,90.70
2022-08-04T15:06:36.320Z,90.90
2022-08-04T15:09:38.487Z,90.80
2022-08-04T15:12:40.992Z,90.70
2022-08-04T15:15:43.918Z,90.50
2022-08-04T15:19:09.656Z,90.80
2022-08-04T15:22:17.450Z,91.00
2022-08-04T15:25:21.494Z,91.00
2022-08-04T15:28:27.491Z,91.40
2022-08-04T15:32:05.965Z,91.20
2022-08-04T15:35:26.601Z,91.00
2022-08-04T15:38:38.382Z,90.80
2022-08-04T15:42:21.422Z,90.90
2022-08-04T15:46:43.439Z,91.10
2022-08-04T15:48:52.828Z,91.00
2022-08-04T15:52:03.420Z,90.80
2022-08-04T15:55:40.506Z,90.90
2022-08-04T15:58:51.282Z,90.80
2022-08-04T16:02:30.072Z,90.60
2022-08-04T16:05:35.816Z,90.60
2022-08-04T16:08:58.086Z,90.80
2022-08-04T16:12:00.568Z,90.60
2022-08-04T16:15:41.498Z,90.50
2022-08-04T16:18:44.759Z,90.60
2022-08-04T16:21:58.715Z,90.90
2022-08-04T16:25:02.729Z,90.90
2022-08-04T16:28:05.081Z,90.90
2022-08-04T16:31:11.175Z,91.20
2022-08-04T16:34:48.594Z,91.30
2022-08-04T16:37:43.440Z,91.30
2022-08-04T16:41:01.181Z,91.50
2022-08-04T16:44:57.445Z,91.50
2022-08-04T16:48:04.339Z,91.60
2022-08-04T16:51:09.951Z,91.30
2022-08-04T16:54:12.441Z,91.80
2022-08-04T16:57:15.775Z,91.80
2022-08-04T17:00:27.546Z,92.10
2022-08-04T17:03:29.726Z,92.10
2022-08-04T17:06:38.150Z,92.30
2022-08-04T17:09:50.346Z,92.30
2022-08-04T17:13:03.706Z,92.50
2022-08-04T17:16:18.336Z,92.60
2022-08-04T17:19:25.623Z,92.60
2022-08-04T17:22:29.616Z,92.70
2022-08-04T17:25:52.347Z,92.00
2022-08-04T17:28:56.210Z,92.10
2022-08-04T17:31:58.310Z,92.50
2022-08-04T17:35:02.312Z,92.50
2022-08-04T17:38:06.415Z,92.50
2022-08-04T17:41:19.590Z,92.50
2022-08-04T17:44:40.612Z,92.60
2022-08-04T17:47:50.712Z,92.60
2022-08-04T17:50:53.942Z,92.60
2022-08-04T17:54:02.386Z,92.50
2022-08-04T17:57:21.107Z,92.50
2022-08-04T18:00:24.007Z,92.60
2022-08-04T18:03:35.636Z,92.50
2022-08-04T18:06:38.443Z,92.50
2022-08-04T18:10:02.260Z,92.80
2022-08-04T18:13:13.865Z,92.80
2022-08-04T18:19:49.988Z,92.80
2022-08-04T18:22:57.807Z,92.80
2022-08-04T18:26:03.596Z,93.20
2022-08-04T18:29:31.781Z,93.40
2022-08-04T18:32:34.359Z,93.50
2022-08-04T18:36:35.340Z,93.60
2022-08-04T18:39:12.903Z,93.60
2022-08-04T18:42:17.500Z,93.80
2022-08-04T18:45:22.946Z,94.20
2022-08-04T18:48:36.171Z,94.00
2022-08-04T18:51:39.337Z,93.90
2022-08-04T18:54:51.564Z,94.00
2022-08-04T18:58:00.958Z,93.90
2022-08-04T19:01:04.020Z,94.00
2022-08-04T19:04:33.587Z,94.50
2022-08-04T19:08:01.503Z,94.40
2022-08-04T19:11:01.303Z,94.90
2022-08-04T19:14:23.724Z,95.00
2022-08-04T19:17:54.261Z,95.10
2022-08-04T19:20:52.528Z,95.20
2022-08-04T19:24:29.275Z,95.30
2022-08-04T19:27:17.147Z,95.30
2022-08-04T19:30:19.474Z,95.50
2022-08-04T19:33:28.594Z,95.60
2022-08-04T19:36:49.045Z,95.80
2022-08-04T19:39:53.112Z,95.70
2022-08-04T19:43:04.859Z,95.50
2022-08-04T19:46:15.425Z,95.50
2022-08-04T19:50:02.887Z,95.80
2022-08-04T19:52:51.501Z,95.90
2022-08-04T19:55:54.639Z,96.10
2022-08-04T19:58:56.802Z,96.20
2022-08-04T20:01:59.545Z,96.50
2022-08-04T20:05:03.222Z,96.60
2022-08-04T20:08:11.640Z,96.80
2022-08-04T20:11:18.443Z,96.70
2022-08-04T20:14:31.389Z,96.90
2022-08-04T20:18:34.569Z,96.80
2022-08-04T20:21:00.382Z,96.70
2022-08-04T20:24:36.547Z,96.70
2022-08-04T20:27:51.484Z,96.70
2022-08-04T20:30:48.978Z,97.10
2022-08-04T20:33:54.904Z,97.40
2022-08-04T20:36:59.237Z,97.40
2022-08-04T20:40:03.295Z,97.50
2022-08-04T20:43:07.633Z,97.60
2022-08-04T20:46:18.266Z,97.80
2022-08-04T20:49:35.196Z,98.00
2022-08-04T20:52:40.178Z,97.90
2022-08-04T20:55:55.800Z,98.20
2022-08-04T20:59:00.010Z,98.40
2022-08-04T21:02:04.312Z,98.30
2022-08-04T21:05:07.174Z,98.50
2022-08-04T21:08:27.063Z,98.60
2022-08-04T21:11:32.614Z,98.60
2022-08-04T21:14:36.075Z,98.50
2022-08-04T21:17:59.345Z,98.60
2022-08-04T21:21:00.585Z,98.90
2022-08-04T21:24:03.372Z,99.10
2022-08-04T21:27:06.754Z,99.00
2022-08-04T21:30:25.337Z,99.10
2022-08-04T21:33:50.561Z,99.30
2022-08-04T21:36:51.674Z,99.60
2022-08-04T21:39:59.381Z,99.70
2022-08-04T21:43:15.838Z,99.90
2022-08-04T21:46:18.371Z,99.90
2022-08-04T21:49:20.651Z,99.90
2022-08-04T21:52:24.055Z,99.90
2022-08-04T21:56:06.581Z,99.90
2022-08-04T21:58:49.375Z,99.90
2022-08-04T22:01:54.846Z,99.90
2022-08-04T22:04:58.102Z,99.90
2022-08-04T22:08:00.350Z,99.90
2022-08-04T22:11:02.708Z,99.90
2022-08-04T22:14:11.987Z,99.90
2022-08-04T22:17:14.394Z,99.90
2022-08-04T22:20:27.373Z,99.90
2022-08-04T22:23:31.035Z,99.90
2022-08-04T22:26:47.588Z,99.90
2022-08-04T22:29:49.906Z,99.90
2022-08-04T22:32:52.184Z,99.90
2022-08-04T22:35:54.598Z,99.90
2022-08-04T22:39:04.393Z,99.90
2022-08-04T22:42:09.307Z,99.90
2022-08-04T22:45:15.682Z,99.90
2022-08-04T22:48:18.468Z,99.90
2022-08-04T22:51:22.433Z,99.90
2022-08-04T22:54:28.613Z,99.90
2022-08-04T22:57:43.394Z,99.90
2022-08-04T23:00:58.403Z,99.90
2022-08-04T23:04:02.004Z,99.90
2022-08-04T23:07:09.134Z,99.90
2022-08-04T23:10:13.390Z,99.90
2022-08-04T23:13:16.029Z,99.90
2022-08-04T23:16:20.487Z,99.90
2022-08-04T23:19:30.106Z,99.90
2022-08-04T23:22:41.993Z,99.90
2022-08-04T23:26:07.295Z,99.90
2022-08-04T23:29:08.150Z,99.90
2022-08-04T23:32:10.285Z,99.90
2022-08-04T23:35:15.404Z,99.90
2022-08-04T23:38:31.048Z,99.90
2022-08-04T23:41:53.553Z,99.90
2022-08-04T23:44:57.609Z,99.90
2022-08-04T23:48:18.353Z,99.90
2022-08-04T23:51:23.266Z,99.90
2022-08-04T23:54:25.854Z,99.90
2022-08-04T23:57:31.358Z,99.90
